sensor_id;sensor_type;location;lat;lon;timestamp;pressure;altitude;pressure_sealevel;temperature;humidity
64253;BME280;50592;52.958;-7.470;2023-05-24T00:00:26;101790.03;;;11.35;100.00
64253;BME280;50592;52.958;-7.470;2023-05-24T00:02:55;101790.72;;;11.37;100.00
64253;BME280;50592;52.958;-7.470;2023-05-24T00:05:23;101791.47;;;11.39;100.00
64253;BME280;50592;52.958;-7.470;2023-05-24T00:07:52;101801.34;;;11.49;100.00
64253;BME280;50592;52.958;-7.470;2023-05-24T00:10:22;101800.66;;;11.58;100.00
64253;BME280;50592;52.958;-7.470;2023-05-24T00:12:52;101805.81;;;11.60;100.00
64253;BME280;50592;52.958;-7.470;2023-05-24T00:15:19;101797.41;;;11.54;100.00
64253;BME280;50592;52.958;-7.470;2023-05-24T00:17:48;101807.16;;;11.54;100.00
64253;BME280;50592;52.958;-7.470;2023-05-24T00:20:15;101806.88;;;11.46;100.00
64253;BME280;50592;52.958;-7.470;2023-05-24T00:22:48;101809.91;;;11.52;100.00
64253;BME280;50592;52.958;-7.470;2023-05-24T00:25:14;101806.06;;;11.57;100.00
64253;BME280;50592;52.958;-7.470;2023-05-24T00:27:44;101800.78;;;11.68;100.00
64253;BME280;50592;52.958;-7.470;2023-05-24T00:30:14;101807.28;;;11.75;100.00
64253;BME280;50592;52.958;-7.470;2023-05-24T00:32:41;101808.88;;;11.78;100.00
64253;BME280;50592;52.958;-7.470;2023-05-24T00:35:10;101804.19;;;11.82;100.00
64253;BME280;50592;52.958;-7.470;2023-05-24T00:37:37;101811.91;;;11.85;100.00
64253;BME280;50592;52.958;-7.470;2023-05-24T00:40:12;101804.41;;;11.90;100.00
64253;BME280;50592;52.958;-7.470;2023-05-24T00:42:39;101809.72;;;11.90;100.00
64253;BME280;50592;52.958;-7.470;2023-05-24T00:45:08;101804.19;;;11.93;100.00
64253;BME280;50592;52.958;-7.470;2023-05-24T00:47:35;101795.53;;;11.91;100.00
64253;BME280;50592;52.958;-7.470;2023-05-24T00:50:06;101789.13;;;11.94;100.00
64253;BME280;50592;52.958;-7.470;2023-05-24T00:52:34;101795.53;;;11.91;100.00
64253;BME280;50592;52.958;-7.470;2023-05-24T00:55:04;101796.47;;;11.90;100.00
64253;BME280;50592;52.958;-7.470;2023-05-24T00:57:31;101792.38;;;11.86;100.00
64253;BME280;50592;52.958;-7.470;2023-05-24T01:00:03;101785.84;;;11.78;100.00
64253;BME280;50592;52.958;-7.470;2023-05-24T01:02:33;101787.66;;;11.66;100.00
64253;BME280;50592;52.958;-7.470;2023-05-24T01:05:04;101780.44;;;11.57;100.00
64253;BME280;50592;52.958;-7.470;2023-05-24T01:07:44;101779.81;;;11.53;100.00
64253;BME280;50592;52.958;-7.470;2023-05-24T01:13:03;101778.38;;;11.49;100.00
64253;BME280;50592;52.958;-7.470;2023-05-24T01:15:44;101785.34;;;11.50;100.00
64253;BME280;50592;52.958;-7.470;2023-05-24T01:18:33;101780.06;;;11.50;100.00
64253;BME280;50592;52.958;-7.470;2023-05-24T01:24:17;101774.25;;;11.45;100.00
64253;BME280;50592;52.958;-7.470;2023-05-24T01:27:06;101772.47;;;11.46;100.00
64253;BME280;50592;52.958;-7.470;2023-05-24T01:29:34;101774.50;;;11.42;100.00
64253;BME280;50592;52.958;-7.470;2023-05-24T01:32:04;101769.19;;;11.42;100.00
64253;BME280;50592;52.958;-7.470;2023-05-24T01:34:31;101774.84;;;11.37;100.00
64253;BME280;50592;52.958;-7.470;2023-05-24T01:37:00;101774.38;;;11.32;100.00
64253;BME280;50592;52.958;-7.470;2023-05-24T01:39:30;101772.75;;;11.18;100.00
64253;BME280;50592;52.958;-7.470;2023-05-24T01:42:08;101778.97;;;11.06;100.00
64253;BME280;50592;52.958;-7.470;2023-05-24T01:44:57;101776.94;;;10.85;100.00
64253;BME280;50592;52.958;-7.470;2023-05-24T01:47:36;101770.78;;;10.73;100.00
64253;BME280;50592;52.958;-7.470;2023-05-24T01:50:17;101792.38;;;10.66;100.00
64253;BME280;50592;52.958;-7.470;2023-05-24T01:52:49;101782.84;;;10.64;100.00
64253;BME280;50592;52.958;-7.470;2023-05-24T01:55:20;101783.47;;;10.67;100.00
64253;BME280;50592;52.958;-7.470;2023-05-24T01:57:53;101776.69;;;10.76;100.00
64253;BME280;50592;52.958;-7.470;2023-05-24T02:00:27;101778.03;;;10.82;100.00
64253;BME280;50592;52.958;-7.470;2023-05-24T02:02:59;101779.13;;;10.91;100.00
64253;BME280;50592;52.958;-7.470;2023-05-24T02:05:33;101791.19;;;10.95;100.00
64253;BME280;50592;52.958;-7.470;2023-05-24T02:08:06;101795.53;;;10.96;100.00
64253;BME280;50592;52.958;-7.470;2023-05-24T02:10:34;101790.47;;;10.93;100.00
64253;BME280;50592;52.958;-7.470;2023-05-24T02:13:07;101785.38;;;10.90;100.00
64253;BME280;50592;52.958;-7.470;2023-05-24T02:15:38;101790.41;;;10.82;100.00
64253;BME280;50592;52.958;-7.470;2023-05-24T02:18:13;101794.97;;;10.79;100.00
64253;BME280;50592;52.958;-7.470;2023-05-24T02:20:40;101790.72;;;10.77;100.00
64253;BME280;50592;52.958;-7.470;2023-05-24T02:23:09;101790.72;;;10.77;100.00
64253;BME280;50592;52.958;-7.470;2023-05-24T02:25:36;101787.38;;;10.75;100.00
64253;BME280;50592;52.958;-7.470;2023-05-24T02:28:06;101787.38;;;10.75;100.00
64253;BME280;50592;52.958;-7.470;2023-05-24T02:30:36;101785.34;;;10.78;100.00
64253;BME280;50592;52.958;-7.470;2023-05-24T02:33:06;101779.81;;;10.82;100.00
64253;BME280;50592;52.958;-7.470;2023-05-24T02:35:32;101784.28;;;10.81;100.00
64253;BME280;50592;52.958;-7.470;2023-05-24T02:38:01;101782.81;;;10.77;100.00
64253;BME280;50592;52.958;-7.470;2023-05-24T02:40:32;101783.59;;;10.66;100.00
64253;BME280;50592;52.958;-7.470;2023-05-24T02:43:02;101793.41;;;10.64;100.00
64253;BME280;50592;52.958;-7.470;2023-05-24T02:45:31;101798.00;;;10.62;100.00
64253;BME280;50592;52.958;-7.470;2023-05-24T02:47:58;101797.47;;;10.57;100.00
64253;BME280;50592;52.958;-7.470;2023-05-24T02:50:27;101793.75;;;10.59;100.00
64253;BME280;50592;52.958;-7.470;2023-05-24T02:52:57;101796.28;;;10.61;100.00
64253;BME280;50592;52.958;-7.470;2023-05-24T02:55:26;101808.25;;;10.66;100.00
64253;BME280;50592;52.958;-7.470;2023-05-24T02:57:54;101799.69;;;10.63;100.00
64253;BME280;50592;52.958;-7.470;2023-05-24T03:00:24;101808.34;;;10.65;100.00
64253;BME280;50592;52.958;-7.470;2023-05-24T03:02:52;101806.53;;;10.65;100.00
64253;BME280;50592;52.958;-7.470;2023-05-24T03:05:22;101787.59;;;10.72;100.00
64253;BME280;50592;52.958;-7.470;2023-05-24T03:07:49;101793.41;;;10.64;100.00
64253;BME280;50592;52.958;-7.470;2023-05-24T03:10:18;101791.84;;;10.61;100.00
64253;BME280;50592;52.958;-7.470;2023-05-24T03:12:44;101794.31;;;10.51;100.00
64253;BME280;50592;52.958;-7.470;2023-05-24T03:15:15;101799.59;;;10.51;100.00
64253;BME280;50592;52.958;-7.470;2023-05-24T03:17:44;101809.97;;;10.54;100.00
64253;BME280;50592;52.958;-7.470;2023-05-24T03:20:14;101794.09;;;10.54;100.00
64253;BME280;50592;52.958;-7.470;2023-05-24T03:22:41;101800.34;;;10.53;100.00
64253;BME280;50592;52.958;-7.470;2023-05-24T03:25:10;101803.84;;;10.54;100.00
64253;BME280;50592;52.958;-7.470;2023-05-24T03:27:36;101812.72;;;10.53;100.00
64253;BME280;50592;52.958;-7.470;2023-05-24T03:30:06;101803.94;;;10.52;100.00
64253;BME280;50592;52.958;-7.470;2023-05-24T03:32:39;101797.81;;;10.39;100.00
64253;BME280;50592;52.958;-7.470;2023-05-24T03:35:09;101806.81;;;10.36;100.00
64253;BME280;50592;52.958;-7.470;2023-05-24T03:37:43;101801.97;;;10.30;100.00
64253;BME280;50592;52.958;-7.470;2023-05-24T03:40:13;101794.88;;;10.30;100.00
64253;BME280;50592;52.958;-7.470;2023-05-24T03:43:08;101794.25;;;10.27;100.00
64253;BME280;50592;52.958;-7.470;2023-05-24T03:45:44;101796.25;;;10.23;100.00
64253;BME280;50592;52.958;-7.470;2023-05-24T03:48:11;101796.16;;;10.25;100.00
64253;BME280;50592;52.958;-7.470;2023-05-24T03:50:40;101790.75;;;10.26;100.00
64253;BME280;50592;52.958;-7.470;2023-05-24T03:53:07;101782.84;;;10.26;100.00
64253;BME280;50592;52.958;-7.470;2023-05-24T03:55:36;101786.09;;;10.30;100.00
64253;BME280;50592;52.958;-7.470;2023-05-24T03:58:02;101783.34;;;10.32;100.00
64253;BME280;50592;52.958;-7.470;2023-05-24T04:00:31;101790.53;;;10.29;100.00
64253;BME280;50592;52.958;-7.470;2023-05-24T04:02:58;101799.53;;;10.27;100.00
64253;BME280;50592;52.958;-7.470;2023-05-24T04:05:29;101804.81;;;10.27;100.00
64253;BME280;50592;52.958;-7.470;2023-05-24T04:07:56;101801.53;;;10.23;100.00
64253;BME280;50592;52.958;-7.470;2023-05-24T04:10:25;101800.47;;;10.26;100.00
64253;BME280;50592;52.958;-7.470;2023-05-24T04:12:51;101798.69;;;10.26;100.00
64253;BME280;50592;52.958;-7.470;2023-05-24T04:15:22;101803.13;;;10.26;100.00
64253;BME280;50592;52.958;-7.470;2023-05-24T04:17:52;101802.84;;;10.17;100.00
64253;BME280;50592;52.958;-7.470;2023-05-24T04:20:23;101804.41;;;10.20;100.00
64253;BME280;50592;52.958;-7.470;2023-05-24T04:22:54;101800.69;;;10.23;100.00
64253;BME280;50592;52.958;-7.470;2023-05-24T04:25:24;101801.53;;;10.23;100.00
64253;BME280;50592;52.958;-7.470;2023-05-24T04:27:55;101811.03;;;10.26;100.00
64253;BME280;50592;52.958;-7.470;2023-05-24T04:30:25;101817.41;;;10.23;100.00
64253;BME280;50592;52.958;-7.470;2023-05-24T04:32:52;101813.09;;;10.22;100.00
64253;BME280;50592;52.958;-7.470;2023-05-24T04:35:19;101810.75;;;10.17;100.00
64253;BME280;50592;52.958;-7.470;2023-05-24T04:37:49;101810.75;;;10.17;100.00
64253;BME280;50592;52.958;-7.470;2023-05-24T04:40:17;101812.22;;;10.09;100.00
64253;BME280;50592;52.958;-7.470;2023-05-24T04:42:47;101803.44;;;10.08;100.00
64253;BME280;50592;52.958;-7.470;2023-05-24T04:45:14;101807.16;;;10.05;100.00
64253;BME280;50592;52.958;-7.470;2023-05-24T04:47:43;101804.72;;;10.15;100.00
64253;BME280;50592;52.958;-7.470;2023-05-24T04:50:10;101809.91;;;10.17;100.00
64253;BME280;50592;52.958;-7.470;2023-05-24T04:52:39;101814.44;;;10.28;100.00
64253;BME280;50592;52.958;-7.470;2023-05-24T04:55:06;101821.94;;;10.34;100.00
64253;BME280;50592;52.958;-7.470;2023-05-24T04:57:35;101821.50;;;10.40;100.00
64253;BME280;50592;52.958;-7.470;2023-05-24T05:00:06;101819.69;;;10.41;100.00
64253;BME280;50592;52.958;-7.470;2023-05-24T05:02:36;101821.19;;;10.32;100.00
64253;BME280;50592;52.958;-7.470;2023-05-24T05:05:03;101819.41;;;10.20;100.00
64253;BME280;50592;52.958;-7.470;2023-05-24T05:07:33;101824.31;;;10.13;100.00
64253;BME280;50592;52.958;-7.470;2023-05-24T05:10:03;101823.75;;;10.08;100.00
64253;BME280;50592;52.958;-7.470;2023-05-24T05:12:33;101827.56;;;10.03;100.00
64253;BME280;50592;52.958;-7.470;2023-05-24T05:15:02;101833.59;;;10.05;100.00
64253;BME280;50592;52.958;-7.470;2023-05-24T05:17:32;101835.16;;;10.08;100.00
64253;BME280;50592;52.958;-7.470;2023-05-24T05:19:59;101833.47;;;10.07;100.00
64253;BME280;50592;52.958;-7.470;2023-05-24T05:22:28;101833.16;;;10.12;100.00
64253;BME280;50592;52.958;-7.470;2023-05-24T05:24:55;101833.16;;;10.12;100.00
64253;BME280;50592;52.958;-7.470;2023-05-24T05:27:23;101836.53;;;10.14;100.00
